Terminal Aerodrome Forecast
Issued by NWS Wilmington, OH

Current Version | Previous Version | Text Only | Print | Product List | Glossary Off
Versions: 1 2 3 4 5 6 7 8 9 10 11 12 13 14 15 16 17 18 19 20 21 22 23 24 25 26 27 28 29

304
FTUS41 KILN 271044 AAC
TAFILN
TAF AMD
KILN 271044Z 2711/2806 VRB03KT 3SM BR BKN150
      TEMPO 2711/2713 3/4SM BR SCT003
     FM271300 00000KT P6SM SCT035 BKN150
     FM271500 VRB05KT P6SM BKN035 BKN250
     FM280000 VRB04KT P6SM SCT120 BKN200=

USA.gov is the U.S. government's official web portal to all federal, state and local government web resources and services.